Time;durP1;ratioP1;P1;durP2;ratioP2;P2;SDS_P1;SDS_P2;PMS_P1;PMS_P2;Temp;Humidity;BMP_temperature;BMP_pressure;BME280_temperature;BME280_humidity;BME280_pressure;Samples;Min_cycle;Max_cycle;Signal;HPM_P1;HPM_P2
2021/07/06 00:00:20;;;;;;;1.10;1.00;;;20.40;99.90;;;;;;5089348;28;20248;-72
2021/07/06 00:02:49;;;;;;;1.10;1.00;;;20.40;99.90;;;;;;5101897;28;20210;-72
2021/07/06 00:05:16;;;;;;;1.13;1.02;;;20.40;99.90;;;;;;5092014;28;20222;-73
2021/07/06 00:07:43;;;;;;;1.20;1.10;;;20.40;99.90;;;;;;5088428;28;20217;-73
2021/07/06 00:10:12;;;;;;;1.20;1.10;;;20.40;99.90;;;;;;5088669;28;20599;-72
2021/07/06 00:12:41;;;;;;;0.90;0.90;;;20.40;99.90;;;;;;5087726;28;20222;-73
2021/07/06 00:15:11;;;;;;;1.33;1.23;;;20.40;99.90;;;;;;5088296;28;20718;-72
2021/07/06 00:17:38;;;;;;;1.30;1.20;;;20.40;99.90;;;;;;5085133;28;20217;-73
2021/07/06 00:20:07;;;;;;;1.25;1.15;;;20.20;99.90;;;;;;5089821;28;20229;-73
2021/07/06 00:22:34;;;;;;;1.65;1.08;;;20.10;99.90;;;;;;5089757;28;20221;-73
2021/07/06 00:25:01;;;;;;;1.50;1.08;;;20.10;99.90;;;;;;5088413;28;20229;-73
2021/07/06 00:27:29;;;;;;;1.10;1.10;;;20.00;99.90;;;;;;5091356;28;20229;-72
2021/07/06 00:29:57;;;;;;;1.10;1.10;;;20.00;99.90;;;;;;5087762;28;20746;-72
2021/07/06 00:32:24;;;;;;;1.20;1.10;;;20.10;99.90;;;;;;5085119;28;20224;-73
2021/07/06 00:34:51;;;;;;;1.13;1.10;;;20.00;99.90;;;;;;5089306;28;20255;-72
2021/07/06 00:37:19;;;;;;;1.15;1.15;;;20.00;99.90;;;;;;5089732;28;20611;-73
2021/07/06 00:39:46;;;;;;;1.00;1.00;;;20.00;99.90;;;;;;5089248;28;20221;-72
2021/07/06 00:42:13;;;;;;;1.45;1.35;;;20.00;99.90;;;;;;5085392;28;20239;-72
2021/07/06 00:44:40;;;;;;;1.17;1.05;;;20.00;99.90;;;;;;5088433;28;20221;-72
2021/07/06 00:47:09;;;;;;;1.05;1.05;;;20.00;99.90;;;;;;5089041;28;20225;-73
2021/07/06 00:49:36;;;;;;;1.02;1.02;;;19.90;99.90;;;;;;5088044;28;20213;-73
2021/07/06 00:52:04;;;;;;;1.00;1.00;;;19.90;99.90;;;;;;5088947;28;20707;-73
2021/07/06 00:54:31;;;;;;;1.13;1.10;;;20.00;99.90;;;;;;5109047;22;20235;-73
2021/07/06 00:56:59;;;;;;;1.45;1.35;;;19.90;99.90;;;;;;5098928;28;20217;-73
2021/07/06 00:59:26;;;;;;;1.35;1.30;;;19.90;99.90;;;;;;5099360;28;20690;-73
2021/07/06 01:01:53;;;;;;;1.23;1.00;;;20.00;99.90;;;;;;5099080;28;20225;-74
2021/07/06 01:04:22;;;;;;;1.00;1.00;;;20.00;99.90;;;;;;5100167;28;23019;-73
2021/07/06 01:06:49;;;;;;;1.05;1.00;;;20.00;99.90;;;;;;5094499;28;20225;-74
2021/07/06 01:09:16;;;;;;;1.00;1.00;;;20.00;99.90;;;;;;5095560;28;20213;-73
2021/07/06 01:11:43;;;;;;;1.23;1.10;;;20.00;99.90;;;;;;5098821;28;20229;-73
2021/07/06 01:14:10;;;;;;;1.30;1.20;;;20.00;99.90;;;;;;5099123;28;20216;-73
2021/07/06 01:16:39;;;;;;;1.20;1.20;;;20.00;99.90;;;;;;5098473;27;20213;-73
2021/07/06 01:19:06;;;;;;;1.05;1.05;;;20.00;99.90;;;;;;5096932;28;20227;-73
2021/07/06 01:21:36;;;;;;;1.10;1.10;;;20.00;99.90;;;;;;5099535;28;20236;-73
2021/07/06 01:24:05;;;;;;;1.52;1.10;;;20.00;99.90;;;;;;5093227;28;20944;-73
2021/07/06 01:26:32;;;;;;;1.05;1.05;;;20.00;99.90;;;;;;5098360;28;20213;-73
2021/07/06 01:28:59;;;;;;;1.63;1.08;;;20.00;99.90;;;;;;5101028;28;20227;-74
2021/07/06 01:31:26;;;;;;;1.20;1.20;;;19.90;99.90;;;;;;5100869;28;20224;-73
2021/07/06 01:33:56;;;;;;;1.20;1.20;;;19.90;99.90;;;;;;5093162;28;20263;-73
2021/07/06 01:36:24;;;;;;;1.10;1.10;;;19.90;99.90;;;;;;5097872;28;20217;-73
2021/07/06 01:38:51;;;;;;;1.17;1.17;;;19.90;99.90;;;;;;5101068;28;20229;-73
2021/07/06 01:41:19;;;;;;;1.00;1.00;;;19.80;99.90;;;;;;5092996;28;20224;-73
2021/07/06 01:43:46;;;;;;;1.08;1.08;;;19.80;99.90;;;;;;5102683;28;20586;-73
2021/07/06 01:46:14;;;;;;;1.00;1.00;;;19.80;99.90;;;;;;5100846;28;20221;-73
2021/07/06 01:48:41;;;;;;;1.10;1.10;;;19.80;99.90;;;;;;5102701;28;20223;-73
2021/07/06 01:51:08;;;;;;;2.47;1.25;;;19.80;99.90;;;;;;5100086;28;20220;-73
2021/07/06 01:53:35;;;;;;;0.93;0.93;;;19.80;99.90;;;;;;5096937;28;20231;-73
2021/07/06 01:56:02;;;;;;;0.70;0.70;;;19.80;99.90;;;;;;5098523;28;20220;-73
2021/07/06 01:58:32;;;;;;;0.90;0.90;;;19.80;99.90;;;;;;5096555;28;20221;-73
2021/07/06 02:01:01;;;;;;;0.90;0.90;;;19.80;99.90;;;;;;5097559;28;20597;-74
2021/07/06 02:03:28;;;;;;;1.00;1.00;;;19.80;99.90;;;;;;5093954;28;20223;-73
2021/07/06 02:05:58;;;;;;;1.05;1.05;;;19.80;99.90;;;;;;5094176;28;20592;-74
2021/07/06 02:08:25;;;;;;;1.20;1.20;;;19.80;99.90;;;;;;5095116;28;20625;-73
2021/07/06 02:10:54;;;;;;;1.30;1.30;;;19.80;99.90;;;;;;5094732;28;20221;-73
2021/07/06 02:13:23;;;;;;;1.40;1.30;;;19.70;99.90;;;;;;5103819;28;20232;-74
2021/07/06 02:15:53;;;;;;;1.30;1.20;;;19.70;99.90;;;;;;5107618;28;20757;-74
2021/07/06 02:18:23;;;;;;;1.40;1.30;;;19.60;99.90;;;;;;5100022;28;20238;-73
2021/07/06 02:20:53;;;;;;;1.30;1.30;;;19.60;99.90;;;;;;5102147;27;20668;-73
2021/07/06 02:23:20;;;;;;;1.08;1.02;;;19.60;99.90;;;;;;5101534;28;20220;-73
2021/07/06 02:25:48;;;;;;;1.23;1.20;;;19.60;99.90;;;;;;5099120;28;20224;-73
2021/07/06 02:28:15;;;;;;;1.17;1.17;;;19.50;99.90;;;;;;5103643;27;20592;-73
2021/07/06 02:30:42;;;;;;;1.20;1.20;;;19.50;99.90;;;;;;5103509;28;20212;-73
2021/07/06 02:33:11;;;;;;;1.10;1.10;;;19.50;99.90;;;;;;5102728;28;20645;-73
2021/07/06 02:35:39;;;;;;;1.27;1.27;;;19.50;99.90;;;;;;5104480;28;20225;-73
2021/07/06 02:38:06;;;;;;;1.40;1.30;;;19.50;99.90;;;;;;5099114;28;20248;-73
2021/07/06 02:40:33;;;;;;;1.92;1.30;;;19.30;99.90;;;;;;5101284;28;20221;-73
2021/07/06 02:43:01;;;;;;;1.30;1.20;;;19.30;99.90;;;;;;5102868;28;20216;-73
2021/07/06 02:45:30;;;;;;;1.25;1.20;;;19.30;99.90;;;;;;5099281;28;20226;-73
2021/07/06 02:47:57;;;;;;;1.40;1.30;;;19.30;99.90;;;;;;5099242;28;20274;-73
2021/07/06 02:50:27;;;;;;;1.77;1.15;;;19.30;99.90;;;;;;5099673;28;20221;-74
2021/07/06 02:52:54;;;;;;;0.90;0.90;;;19.30;99.90;;;;;;5099863;28;20240;-73
2021/07/06 02:55:22;;;;;;;1.33;1.23;;;19.30;99.90;;;;;;5100518;27;20229;-73
2021/07/06 02:57:52;;;;;;;1.52;1.42;;;19.30;99.90;;;;;;5101580;28;20232;-73
2021/07/06 03:00:22;;;;;;;1.17;1.17;;;19.30;99.90;;;;;;5106430;27;20857;-73
2021/07/06 03:02:51;;;;;;;1.25;1.23;;;19.30;99.90;;;;;;5105333;27;20220;-74
2021/07/06 03:05:21;;;;;;;1.58;0.90;;;19.30;99.90;;;;;;5099747;27;20730;-73
2021/07/06 03:07:50;;;;;;;1.08;1.08;;;19.30;99.90;;;;;;5103557;28;20223;-73
2021/07/06 03:10:19;;;;;;;1.10;1.10;;;19.20;99.90;;;;;;5106626;28;20220;-72
2021/07/06 03:12:46;;;;;;;1.10;1.10;;;19.20;99.90;;;;;;5095548;28;20232;-73
2021/07/06 03:15:16;;;;;;;1.20;1.10;;;19.10;99.90;;;;;;5102274;28;20660;-74
2021/07/06 03:17:43;;;;;;;1.10;1.10;;;19.10;99.90;;;;;;5101677;27;20220;-73
2021/07/06 03:20:12;;;;;;;1.02;1.02;;;19.10;99.90;;;;;;5100987;27;20217;-72
2021/07/06 03:22:40;;;;;;;1.40;1.30;;;19.10;99.90;;;;;;5101621;27;20220;-73
2021/07/06 03:25:11;;;;;;;1.27;1.20;;;19.20;99.90;;;;;;5095039;28;20804;-73
2021/07/06 03:27:39;;;;;;;1.23;1.00;;;19.20;99.90;;;;;;5099491;28;20673;-73
2021/07/06 03:30:08;;;;;;;1.40;1.30;;;19.20;99.90;;;;;;5104145;28;20224;-73
2021/07/06 03:32:35;;;;;;;1.20;1.20;;;19.20;99.90;;;;;;5099614;28;20221;-73
2021/07/06 03:35:02;;;;;;;0.90;0.90;;;19.20;99.90;;;;;;5101488;28;20240;-73
2021/07/06 03:37:30;;;;;;;1.30;1.30;;;19.20;99.90;;;;;;5101044;28;20209;-73
2021/07/06 03:39:57;;;;;;;1.33;1.23;;;19.20;99.90;;;;;;5102098;27;20633;-73
2021/07/06 03:42:25;;;;;;;1.20;1.20;;;19.20;99.90;;;;;;5097914;28;20730;-74
2021/07/06 03:44:52;;;;;;;1.30;1.20;;;19.10;99.90;;;;;;5111118;28;20240;-73
2021/07/06 03:47:19;;;;;;;3.20;1.27;;;19.10;99.90;;;;;;5115270;28;20252;-73
2021/07/06 03:49:46;;;;;;;1.48;1.38;;;19.00;99.90;;;;;;5103944;27;20213;-73
2021/07/06 03:52:13;;;;;;;1.10;1.10;;;19.00;99.90;;;;;;5096747;28;20237;-73
2021/07/06 03:54:40;;;;;;;1.00;1.00;;;19.00;99.90;;;;;;5095261;28;20217;-73
2021/07/06 03:57:07;;;;;;;1.20;1.20;;;19.00;99.90;;;;;;5098840;28;20229;-73
2021/07/06 03:59:36;;;;;;;1.13;1.13;;;19.00;99.90;;;;;;5102307;27;20217;-72
2021/07/06 04:02:03;;;;;;;1.10;1.10;;;19.00;99.90;;;;;;5100610;28;20221;-73
2021/07/06 04:04:31;;;;;;;1.50;1.30;;;19.00;99.90;;;;;;5095937;28;20232;-73
2021/07/06 04:06:59;;;;;;;1.20;1.20;;;19.00;99.90;;;;;;5102117;27;20225;-73
2021/07/06 04:09:26;;;;;;;1.20;1.10;;;19.00;99.90;;;;;;5094683;28;20223;-73
2021/07/06 04:11:53;;;;;;;1.23;1.20;;;19.00;99.90;;;;;;5101941;28;20220;-73
2021/07/06 04:14:20;;;;;;;1.17;1.17;;;19.10;99.90;;;;;;5098385;27;20220;-73
2021/07/06 04:16:48;;;;;;;1.10;1.10;;;19.20;99.90;;;;;;5097241;28;20225;-73
2021/07/06 04:19:15;;;;;;;1.70;1.20;;;19.30;99.90;;;;;;5096620;28;20208;-73
2021/07/06 04:21:42;;;;;;;1.00;1.00;;;19.40;99.90;;;;;;5101941;27;20221;-73
2021/07/06 04:24:09;;;;;;;1.40;1.30;;;19.40;99.90;;;;;;5105657;28;20221;-72
2021/07/06 04:26:36;;;;;;;1.30;1.20;;;19.50;99.90;;;;;;5097929;28;21032;-73
2021/07/06 04:29:03;;;;;;;1.40;1.30;;;19.50;99.90;;;;;;5101295;27;20229;-73
2021/07/06 04:31:31;;;;;;;1.33;1.27;;;19.60;99.90;;;;;;5102718;28;20220;-73
2021/07/06 04:33:59;;;;;;;1.48;1.38;;;19.60;99.90;;;;;;5102130;27;20225;-73
2021/07/06 04:36:26;;;;;;;1.20;1.10;;;19.70;99.90;;;;;;5101978;28;20592;-73
2021/07/06 04:38:53;;;;;;;1.55;1.20;;;19.80;99.90;;;;;;5100032;28;20227;-73
2021/07/06 04:41:20;;;;;;;2.03;1.30;;;19.80;99.90;;;;;;5098080;28;20241;-73
2021/07/06 04:43:48;;;;;;;1.20;1.20;;;19.80;99.90;;;;;;5099075;27;20735;-73
2021/07/06 04:46:15;;;;;;;1.15;1.15;;;19.80;99.90;;;;;;5099241;28;20221;-72
2021/07/06 04:48:42;;;;;;;1.40;1.30;;;19.90;99.90;;;;;;5099703;28;20216;-73
2021/07/06 04:51:10;;;;;;;1.35;1.25;;;20.00;99.90;;;;;;5094543;28;20223;-73
2021/07/06 04:53:39;;;;;;;1.17;1.17;;;20.00;99.90;;;;;;5095895;27;20271;-73
2021/07/06 04:56:06;;;;;;;1.30;1.30;;;20.10;99.90;;;;;;5098585;28;20216;-73
2021/07/06 04:58:35;;;;;;;1.65;1.55;;;20.20;99.90;;;;;;5100753;28;20213;-73
2021/07/06 05:01:02;;;;;;;1.40;1.30;;;20.40;99.90;;;;;;5102758;28;20224;-73
2021/07/06 05:03:30;;;;;;;2.58;1.48;;;20.50;99.90;;;;;;5099549;28;20220;-74
2021/07/06 05:05:58;;;;;;;1.45;1.35;;;20.60;99.90;;;;;;5096906;28;20256;-73
2021/07/06 05:08:26;;;;;;;1.58;1.48;;;20.70;99.90;;;;;;5099675;28;20224;-73
2021/07/06 05:10:53;;;;;;;1.70;1.60;;;20.60;99.90;;;;;;5102267;28;20239;-73
2021/07/06 05:13:21;;;;;;;2.22;1.80;;;20.50;99.90;;;;;;5099486;28;20239;-73
2021/07/06 05:15:48;;;;;;;1.80;1.42;;;20.40;99.90;;;;;;5102084;28;20221;-73
2021/07/06 05:18:15;;;;;;;1.80;1.70;;;20.20;99.90;;;;;;5114556;28;20218;-72
2021/07/06 05:20:42;;;;;;;2.45;1.55;;;20.20;99.90;;;;;;5102525;28;20213;-72
2021/07/06 05:23:09;;;;;;;1.73;1.33;;;20.30;99.90;;;;;;5097719;28;20221;-72
2021/07/06 05:25:38;;;;;;;1.38;1.30;;;20.40;99.90;;;;;;5105545;28;20597;-72
2021/07/06 05:28:05;;;;;;;1.70;1.60;;;20.60;99.90;;;;;;5103270;28;20217;-73
2021/07/06 05:30:32;;;;;;;1.35;1.27;;;20.80;99.90;;;;;;5096666;28;20216;-73
2021/07/06 05:32:59;;;;;;;2.28;1.42;;;20.90;99.90;;;;;;5098878;28;20224;-73
2021/07/06 05:35:26;;;;;;;1.63;1.50;;;21.10;99.90;;;;;;5100424;28;20220;-73
2021/07/06 05:37:53;;;;;;;1.60;1.50;;;21.30;99.90;;;;;;5098532;28;20220;-73
2021/07/06 05:40:20;;;;;;;1.60;1.50;;;21.50;99.90;;;;;;5097467;28;20244;-73
2021/07/06 05:42:49;;;;;;;1.80;1.70;;;21.60;99.90;;;;;;5101859;28;20614;-73
2021/07/06 05:45:16;;;;;;;1.85;1.75;;;21.70;99.90;;;;;;5100133;28;20235;-73
2021/07/06 05:47:43;;;;;;;1.80;1.70;;;21.70;99.90;;;;;;5099937;28;20228;-73
2021/07/06 05:50:13;;;;;;;2.08;1.98;;;21.60;99.90;;;;;;5099209;28;20212;-73
2021/07/06 05:52:40;;;;;;;2.05;1.60;;;21.50;99.90;;;;;;5103539;27;20216;-73
2021/07/06 05:55:09;;;;;;;1.80;1.70;;;21.40;99.90;;;;;;5102494;27;20220;-74
2021/07/06 05:57:39;;;;;;;2.38;2.05;;;21.40;99.90;;;;;;5105899;27;20227;-73
2021/07/06 06:00:11;;;;;;;2.00;1.90;;;21.30;99.90;;;;;;5104312;27;20746;-73
2021/07/06 06:02:38;;;;;;;2.00;1.90;;;21.30;99.90;;;;;;5106616;28;20691;-73
2021/07/06 06:05:06;;;;;;;1.80;1.70;;;21.20;99.90;;;;;;5107396;28;20228;-73
2021/07/06 06:07:38;;;;;;;2.28;1.92;;;21.20;99.90;;;;;;5098331;28;20604;-73
2021/07/06 06:10:07;;;;;;;1.98;1.88;;;21.40;99.90;;;;;;5101355;27;20216;-74
2021/07/06 06:12:34;;;;;;;1.80;1.70;;;21.40;99.90;;;;;;5100589;28;20707;-74
2021/07/06 06:15:01;;;;;;;1.80;1.70;;;21.50;99.90;;;;;;5103340;28;20236;-74
2021/07/06 06:17:29;;;;;;;2.25;1.58;;;21.60;99.90;;;;;;5100496;28;20240;-74
2021/07/06 06:19:56;;;;;;;1.83;1.67;;;22.00;99.90;;;;;;5104368;27;20221;-74
2021/07/06 06:22:24;;;;;;;2.20;1.98;;;22.20;99.90;;;;;;5104156;28;20223;-74
2021/07/06 06:24:51;;;;;;;1.63;1.52;;;22.30;99.90;;;;;;5102360;27;20259;-73
2021/07/06 06:27:18;;;;;;;3.47;2.10;;;22.40;99.90;;;;;;5099821;28;20231;-74
2021/07/06 06:29:45;;;;;;;2.10;2.00;;;22.50;99.90;;;;;;5100067;27;20614;-74
2021/07/06 06:32:12;;;;;;;2.63;2.40;;;22.40;99.90;;;;;;5101004;28;20710;-74
2021/07/06 06:34:41;;;;;;;2.85;2.28;;;22.30;99.90;;;;;;5098596;28;20707;-74
2021/07/06 06:37:08;;;;;;;2.50;2.30;;;22.30;99.90;;;;;;5097751;27;20224;-74
2021/07/06 06:39:35;;;;;;;2.42;2.13;;;22.30;99.90;;;;;;5085769;28;20218;-74
2021/07/06 06:42:02;;;;;;;2.10;1.90;;;22.30;99.90;;;;;;5089906;28;20232;-74
2021/07/06 06:44:29;;;;;;;2.30;2.20;;;22.30;99.90;;;;;;5095088;27;20228;-74
2021/07/06 06:46:56;;;;;;;2.13;2.03;;;22.30;99.90;;;;;;5094737;28;20221;-74
2021/07/06 06:49:24;;;;;;;2.10;2.00;;;22.30;99.90;;;;;;5104229;27;20228;-74
2021/07/06 06:51:52;;;;;;;6.32;2.92;;;22.50;99.90;;;;;;5094136;28;20779;-73
2021/07/06 06:54:19;;;;;;;3.63;2.10;;;22.50;99.90;;;;;;5127553;22;20185;-74
2021/07/06 06:56:46;;;;;;;3.55;2.20;;;22.60;99.90;;;;;;5098821;28;20635;-75
2021/07/06 06:59:14;;;;;;;5.20;2.30;;;22.70;99.90;;;;;;5091132;27;20563;-74
2021/07/06 07:01:43;;;;;;;2.22;2.03;;;22.80;99.90;;;;;;5091175;28;20253;-75
2021/07/06 07:04:10;;;;;;;2.35;2.15;;;22.80;99.90;;;;;;5088159;28;20223;-73
2021/07/06 07:06:37;;;;;;;3.30;2.17;;;22.70;99.90;;;;;;5075930;28;20220;-74
2021/07/06 07:09:09;;;;;;;2.20;1.80;;;22.70;99.90;;;;;;5078153;27;20835;-75
2021/07/06 07:11:36;;;;;;;2.10;2.00;;;22.80;99.90;;;;;;5075539;28;20213;-74
2021/07/06 07:14:03;;;;;;;2.70;2.15;;;23.00;99.90;;;;;;5074873;28;20226;-73
2021/07/06 07:16:30;;;;;;;2.47;2.28;;;23.30;99.90;;;;;;5086318;28;20224;-74
2021/07/06 07:18:57;;;;;;;3.55;2.22;;;23.30;99.90;;;;;;5082215;28;20233;-75
2021/07/06 07:21:25;;;;;;;3.50;2.30;;;23.30;99.90;;;;;;5076981;28;20238;-75
2021/07/06 07:23:52;;;;;;;2.90;2.03;;;23.40;99.90;;;;;;5078404;28;20229;-74
2021/07/06 07:26:20;;;;;;;3.00;2.13;;;23.40;99.90;;;;;;5080868;28;20223;-73
2021/07/06 07:28:47;;;;;;;2.13;1.90;;;23.50;99.90;;;;;;5079521;28;20232;-74
2021/07/06 07:31:14;;;;;;;1.75;1.65;;;23.60;99.90;;;;;;5082442;27;20228;-75
2021/07/06 07:33:41;;;;;;;1.95;1.85;;;23.70;99.90;;;;;;5082596;28;20233;-75
2021/07/06 07:36:09;;;;;;;2.20;2.05;;;23.80;99.90;;;;;;5071920;28;20937;-74
2021/07/06 07:38:36;;;;;;;3.05;1.83;;;24.00;99.90;;;;;;5075111;28;20873;-75
2021/07/06 07:41:03;;;;;;;2.33;1.95;;;24.20;99.90;;;;;;5070191;28;20596;-74
2021/07/06 07:43:31;;;;;;;2.38;2.17;;;24.20;99.90;;;;;;5071897;28;20226;-75
2021/07/06 07:45:58;;;;;;;2.35;2.03;;;24.20;99.90;;;;;;5073628;28;21255;-75
2021/07/06 07:48:25;;;;;;;2.03;1.92;;;24.20;99.90;;;;;;5078843;28;20221;-76
2021/07/06 07:50:52;;;;;;;2.03;1.92;;;24.30;99.90;;;;;;5074648;28;20230;-77
2021/07/06 07:53:19;;;;;;;1.80;1.70;;;24.30;99.90;;;;;;5070870;28;20222;-74
2021/07/06 07:55:47;;;;;;;2.47;1.95;;;24.50;99.90;;;;;;5076745;28;20316;-77
2021/07/06 07:58:14;;;;;;;1.88;1.77;;;24.60;99.90;;;;;;5074978;28;20705;-73
2021/07/06 08:00:42;;;;;;;2.10;1.95;;;24.70;99.90;;;;;;5091751;28;20220;-74
2021/07/06 08:03:10;;;;;;;2.13;1.95;;;24.90;99.90;;;;;;5081257;28;20390;-74
2021/07/06 08:05:37;;;;;;;1.98;1.80;;;24.90;99.90;;;;;;5073016;28;20793;-75
2021/07/06 08:08:05;;;;;;;2.10;1.90;;;25.00;99.90;;;;;;5076252;28;20253;-76
2021/07/06 08:10:32;;;;;;;3.22;2.13;;;25.20;99.90;;;;;;5078526;28;20563;-77
2021/07/06 08:12:59;;;;;;;2.30;2.20;;;25.20;99.90;;;;;;5081882;28;20225;-76
2021/07/06 08:15:26;;;;;;;2.28;2.08;;;25.20;99.90;;;;;;5070058;28;20240;-74
2021/07/06 08:17:55;;;;;;;2.08;1.98;;;25.20;99.90;;;;;;5080282;28;20225;-77
2021/07/06 08:20:22;;;;;;;2.45;2.25;;;25.30;99.90;;;;;;5077084;28;20700;-74
2021/07/06 08:22:51;;;;;;;2.22;2.03;;;25.40;99.90;;;;;;5078318;28;20220;-77
2021/07/06 08:25:18;;;;;;;2.20;2.00;;;25.50;99.90;;;;;;5078776;28;20220;-77
2021/07/06 08:27:45;;;;;;;2.88;2.67;;;25.60;99.90;;;;;;5078684;28;20217;-76
2021/07/06 08:30:13;;;;;;;3.17;1.88;;;25.60;99.90;;;;;;5069874;28;20731;-76
2021/07/06 08:32:40;;;;;;;2.35;2.03;;;25.50;99.90;;;;;;5078953;28;20221;-77
2021/07/06 08:35:10;;;;;;;2.03;1.92;;;25.70;99.90;;;;;;5072832;28;20236;-76
2021/07/06 08:37:37;;;;;;;2.22;2.08;;;26.00;99.90;;;;;;5075617;28;20223;-77
2021/07/06 08:40:05;;;;;;;2.17;2.05;;;26.10;99.90;;;;;;5085322;27;20354;-76
2021/07/06 08:42:32;;;;;;;2.00;1.80;;;26.20;99.90;;;;;;5072316;28;20240;-76
2021/07/06 08:45:00;;;;;;;1.98;1.88;;;26.30;99.90;;;;;;5075507;28;20230;-76
2021/07/06 08:47:30;;;;;;;2.47;1.73;;;26.30;99.90;;;;;;5075786;28;20551;-76
2021/07/06 08:49:57;;;;;;;2.80;1.90;;;26.30;99.90;;;;;;5079044;28;20768;-76
2021/07/06 08:52:26;;;;;;;2.35;1.80;;;26.30;99.90;;;;;;5082108;28;20225;-76
2021/07/06 08:54:53;;;;;;;1.80;1.70;;;26.30;99.90;;;;;;5074059;28;20539;-77
2021/07/06 08:57:22;;;;;;;1.70;1.60;;;26.40;99.90;;;;;;5074053;28;20229;-75
2021/07/06 08:59:50;;;;;;;2.35;1.90;;;26.50;99.90;;;;;;5074025;28;20301;-76
2021/07/06 09:02:23;;;;;;;2.00;1.90;;;26.70;99.90;;;;;;5074611;28;20233;-75
2021/07/06 09:04:51;;;;;;;1.92;1.83;;;26.80;99.90;;;;;;5081461;28;20751;-75
2021/07/06 09:07:19;;;;;;;2.08;1.70;;;26.80;99.90;;;;;;5077290;28;20493;-75
2021/07/06 09:09:49;;;;;;;2.53;2.13;;;26.90;99.90;;;;;;5076706;28;20456;-76
2021/07/06 09:12:18;;;;;;;3.00;1.70;;;26.80;99.90;;;;;;5073674;28;20216;-75
2021/07/06 09:14:48;;;;;;;1.83;1.67;;;26.80;99.90;;;;;;5075654;28;20454;-76
2021/07/06 09:17:17;;;;;;;1.80;1.50;;;27.00;99.90;;;;;;5082173;28;20755;-76
2021/07/06 09:19:46;;;;;;;1.70;1.60;;;27.00;99.90;;;;;;5074899;28;20209;-76
2021/07/06 09:22:16;;;;;;;2.17;1.77;;;27.20;99.90;;;;;;5074930;28;20236;-76
2021/07/06 09:24:44;;;;;;;1.60;1.50;;;27.40;99.90;;;;;;5072683;28;20226;-77
2021/07/06 09:27:25;;;;;;;1.60;1.50;;;27.40;99.90;;;;;;5073055;28;20592;-76
2021/07/06 09:30:10;;;;;;;3.05;1.80;;;27.40;99.90;;;;;;5080031;28;20725;-76
2021/07/06 09:32:41;;;;;;;1.77;1.63;;;27.50;99.90;;;;;;5074938;28;20232;-76
2021/07/06 09:35:10;;;;;;;1.50;1.40;;;27.60;99.90;;;;;;5072933;28;20246;-76
2021/07/06 09:37:45;;;;;;;1.65;1.52;;;27.80;99.90;;;;;;5068737;28;20246;-76
2021/07/06 09:40:23;;;;;;;1.58;1.48;;;28.00;99.90;;;;;;5075106;28;20596;-77
2021/07/06 09:43:14;;;;;;;1.40;1.30;;;28.10;99.90;;;;;;5080082;28;20232;-74
2021/07/06 09:45:41;;;;;;;1.73;1.58;;;28.10;99.90;;;;;;5073946;28;20214;-76
2021/07/06 09:48:10;;;;;;;2.63;1.30;;;28.30;99.90;;;;;;5074210;28;20700;-75
2021/07/06 09:50:37;;;;;;;1.33;1.23;;;28.50;99.90;;;;;;5075529;28;20278;-76
2021/07/06 09:53:05;;;;;;;1.60;1.50;;;28.50;99.90;;;;;;5082564;28;20726;-76
2021/07/06 09:55:33;;;;;;;1.70;1.58;;;28.50;99.90;;;;;;5082698;28;20277;-76
2021/07/06 09:58:05;;;;;;;1.50;1.40;;;28.70;99.90;;;;;;5067886;28;20218;-75
2021/07/06 10:00:33;;;;;;;1.60;1.50;;;28.70;99.90;;;;;;5069619;28;21252;-75
2021/07/06 10:03:01;;;;;;;1.50;1.30;;;28.50;99.90;;;;;;5070159;28;20232;-77
2021/07/06 10:05:31;;;;;;;1.42;1.35;;;28.50;99.90;;;;;;5075151;28;20453;-77
2021/07/06 10:07:58;;;;;;;2.53;1.67;;;28.80;99.90;;;;;;5073318;28;20224;-76
2021/07/06 10:10:26;;;;;;;1.55;1.45;;;28.90;99.90;;;;;;5075967;28;20224;-77
2021/07/06 10:12:53;;;;;;;2.13;1.50;;;29.00;99.90;;;;;;5074479;28;20607;-75
2021/07/06 10:15:23;;;;;;;1.42;1.38;;;28.90;99.90;;;;;;5074205;28;20745;-75
2021/07/06 10:17:52;;;;;;;1.42;1.23;;;28.80;99.90;;;;;;5070079;28;20224;-74
2021/07/06 10:20:22;;;;;;;2.25;1.33;;;28.70;99.90;;;;;;5073810;28;20222;-76
2021/07/06 10:22:50;;;;;;;1.45;1.35;;;28.70;99.90;;;;;;5081209;28;20236;-77
2021/07/06 10:25:18;;;;;;;1.70;1.60;;;28.60;99.90;;;;;;5073956;28;20729;-77
2021/07/06 10:27:54;;;;;;;1.75;1.65;;;28.80;99.90;;;;;;5073062;28;20229;-77
2021/07/06 10:30:28;;;;;;;1.60;1.50;;;29.00;99.90;;;;;;5066669;28;20279;-77
2021/07/06 10:32:56;;;;;;;2.28;1.48;;;29.00;99.90;;;;;;5072332;28;20229;-77
2021/07/06 10:35:47;;;;;;;2.97;1.67;;;28.90;99.90;;;;;;5071586;28;20225;-76
2021/07/06 10:38:47;;;;;;;1.70;1.60;;;29.00;99.90;;;;;;5069784;28;20206;-76
2021/07/06 10:41:22;;;;;;;2.63;1.70;;;29.10;99.90;;;;;;5068963;27;20319;-77
2021/07/06 10:43:58;;;;;;;1.80;1.70;;;29.10;99.90;;;;;;5074133;28;20241;-77
2021/07/06 10:46:43;;;;;;;1.77;1.60;;;29.20;99.90;;;;;;5072291;28;20217;-76
2021/07/06 10:49:14;;;;;;;3.22;1.67;;;29.40;99.90;;;;;;5071942;28;20233;-76
2021/07/06 10:51:54;;;;;;;1.60;1.50;;;29.50;99.90;;;;;;5073646;28;20717;-77
2021/07/06 10:54:30;;;;;;;1.63;1.40;;;29.50;99.90;;;;;;5076934;28;20259;-74
2021/07/06 10:56:59;;;;;;;1.52;1.30;;;29.90;99.90;;;;;;5073015;28;20221;-76
2021/07/06 10:59:27;;;;;;;1.70;1.50;;;30.10;99.90;;;;;;5076668;28;20236;-76
2021/07/06 11:02:01;;;;;;;2.22;1.48;;;30.20;99.90;;;;;;5073200;28;20591;-76
2021/07/06 11:05:02;;;;;;;1.55;1.45;;;30.20;99.90;;;;;;5074451;28;20233;-77
2021/07/06 11:07:53;;;;;;;1.52;1.42;;;30.30;99.90;;;;;;5071427;28;20216;-76
2021/07/06 11:10:22;;;;;;;1.55;1.45;;;30.50;99.90;;;;;;5077971;28;20209;-76
2021/07/06 11:12:50;;;;;;;1.77;1.60;;;30.60;99.90;;;;;;5073565;28;20306;-77
2021/07/06 11:15:27;;;;;;;1.50;1.40;;;30.90;99.90;;;;;;5082497;28;20240;-76
2021/07/06 11:18:03;;;;;;;1.60;1.50;;;30.90;99.90;;;;;;5077234;28;20232;-76
2021/07/06 11:20:33;;;;;;;1.63;1.38;;;30.90;99.90;;;;;;5086264;28;20277;-77
2021/07/06 11:23:01;;;;;;;2.15;1.58;;;30.80;99.90;;;;;;5070377;28;22280;-77
2021/07/06 11:25:37;;;;;;;1.27;1.27;;;30.50;99.90;;;;;;5071290;28;20221;-75
2021/07/06 11:28:06;;;;;;;3.85;1.40;;;30.50;99.90;;;;;;5066288;28;20208;-76
2021/07/06 11:30:36;;;;;;;1.30;1.20;;;30.70;99.90;;;;;;5075061;28;20227;-76
2021/07/06 11:33:07;;;;;;;1.50;1.38;;;31.00;99.90;;;;;;5072118;28;20225;-75
2021/07/06 11:35:37;;;;;;;2.03;1.60;;;31.20;99.90;;;;;;5077112;28;20312;-75
2021/07/06 11:38:07;;;;;;;2.58;1.33;;;31.00;99.90;;;;;;5080024;28;20742;-75
2021/07/06 11:40:36;;;;;;;1.95;1.75;;;30.80;99.90;;;;;;5069514;28;20220;-76
2021/07/06 11:43:03;;;;;;;1.50;1.40;;;30.70;99.90;;;;;;5075122;28;20310;-74
2021/07/06 11:45:30;;;;;;;1.63;1.40;;;30.50;99.90;;;;;;5074992;28;20252;-75
2021/07/06 11:48:10;;;;;;;1.70;1.60;;;30.60;99.90;;;;;;5080084;28;20682;-76
2021/07/06 11:50:38;;;;;;;1.25;1.25;;;30.90;99.90;;;;;;5068212;28;20707;-76
2021/07/06 11:53:06;;;;;;;1.50;1.40;;;30.80;99.90;;;;;;5068764;28;20223;-76
2021/07/06 11:55:35;;;;;;;1.80;1.55;;;30.70;99.90;;;;;;5071857;28;20236;-76
2021/07/06 11:58:03;;;;;;;1.40;1.30;;;30.60;99.90;;;;;;5076091;28;20572;-74
2021/07/06 12:00:36;;;;;;;1.63;1.52;;;31.00;99.90;;;;;;5077507;28;20758;-76
2021/07/06 12:03:29;;;;;;;3.22;1.52;;;31.40;99.90;;;;;;5073672;28;20213;-76
2021/07/06 12:05:58;;;;;;;1.60;1.50;;;31.60;99.90;;;;;;5065377;28;20230;-76
2021/07/06 12:08:27;;;;;;;2.00;1.90;;;31.60;99.90;;;;;;5073159;28;20218;-75
2021/07/06 12:11:06;;;;;;;2.05;1.73;;;31.70;99.90;;;;;;5068482;28;20233;-75
2021/07/06 12:13:36;;;;;;;1.77;1.33;;;31.70;99.90;;;;;;5071498;28;20447;-74
2021/07/06 12:16:11;;;;;;;1.70;1.60;;;31.70;99.90;;;;;;5066430;28;20220;-75
2021/07/06 12:18:55;;;;;;;1.10;1.10;;;31.70;99.90;;;;;;5076813;28;20265;-76
2021/07/06 12:21:28;;;;;;;1.70;1.60;;;32.00;99.90;;;;;;5079284;27;20221;-75
2021/07/06 12:23:57;;;;;;;1.48;1.40;;;32.00;99.90;;;;;;5071733;28;20308;-76
2021/07/06 12:26:25;;;;;;;1.40;1.30;;;31.90;99.90;;;;;;5071104;28;20770;-75
2021/07/06 12:28:55;;;;;;;1.60;1.50;;;32.10;99.90;;;;;;5066747;28;20802;-75
2021/07/06 12:31:26;;;;;;;1.88;1.70;;;32.50;99.90;;;;;;5079158;28;20875;-74
2021/07/06 12:34:05;;;;;;;1.70;1.60;;;32.40;99.90;;;;;;5074323;28;20240;-76
2021/07/06 12:36:34;;;;;;;1.77;1.58;;;32.10;99.90;;;;;;5073233;28;20661;-75
2021/07/06 12:39:22;;;;;;;2.80;1.30;;;31.70;99.90;;;;;;5070630;28;20764;-76
2021/07/06 12:41:52;;;;;;;1.75;1.65;;;31.60;99.90;;;;;;5070584;28;20214;-76
2021/07/06 12:44:30;;;;;;;1.85;1.70;;;31.50;99.90;;;;;;5071475;28;20225;-76
2021/07/06 12:47:12;;;;;;;1.80;1.70;;;31.50;99.90;;;;;;5068469;28;21337;-76
2021/07/06 12:49:41;;;;;;;1.58;1.48;;;31.50;99.90;;;;;;5071826;28;20231;-76
2021/07/06 12:52:08;;;;;;;1.73;1.60;;;31.70;99.90;;;;;;5071808;28;20219;-74
2021/07/06 12:57:12;;;;;;;1.75;1.65;;;31.60;99.90;;;;;;5043350;28;20214;-74
2021/07/06 12:59:39;;;;;;;2.85;1.60;;;31.40;99.90;;;;;;5041679;28;20225;-78